sensor_id;sensor_type;location;lat;lon;timestamp;P1;durP1;ratioP1;P2;durP2;ratioP2
32748;SDS011;19119;52.474;13.710;2022-09-09T00:01:09;0.90;;;0.65;;
32748;SDS011;19119;52.474;13.710;2022-09-09T00:03:47;0.50;;;0.50;;
32748;SDS011;19119;52.474;13.710;2022-09-09T00:06:23;0.77;;;0.77;;
32748;SDS011;19119;52.474;13.710;2022-09-09T00:11:40;0.95;;;0.68;;
32748;SDS011;19119;52.474;13.710;2022-09-09T00:16:49;0.63;;;0.45;;
32748;SDS011;19119;52.474;13.710;2022-09-09T00:19:22;0.80;;;0.60;;
32748;SDS011;19119;52.474;13.710;2022-09-09T00:25:10;0.55;;;0.52;;
32748;SDS011;19119;52.474;13.710;2022-09-09T00:27:44;0.50;;;0.50;;
32748;SDS011;19119;52.474;13.710;2022-09-09T00:32:53;0.68;;;0.50;;
32748;SDS011;19119;52.474;13.710;2022-09-09T00:38:14;0.50;;;0.40;;
32748;SDS011;19119;52.474;13.710;2022-09-09T00:43:46;1.38;;;0.90;;
32748;SDS011;19119;52.474;13.710;2022-09-09T00:51:58;0.90;;;0.70;;
32748;SDS011;19119;52.474;13.710;2022-09-09T00:57:40;0.50;;;0.50;;
32748;SDS011;19119;52.474;13.710;2022-09-09T01:05:58;0.77;;;0.57;;
32748;SDS011;19119;52.474;13.710;2022-09-09T01:08:42;1.15;;;0.55;;
32748;SDS011;19119;52.474;13.710;2022-09-09T01:11:16;1.52;;;0.77;;
32748;SDS011;19119;52.474;13.710;2022-09-09T01:13:47;0.70;;;0.52;;
32748;SDS011;19119;52.474;13.710;2022-09-09T01:16:34;1.02;;;0.57;;
32748;SDS011;19119;52.474;13.710;2022-09-09T01:19:00;1.17;;;0.75;;
32748;SDS011;19119;52.474;13.710;2022-09-09T01:21:42;2.33;;;0.82;;
32748;SDS011;19119;52.474;13.710;2022-09-09T01:24:24;0.80;;;0.70;;
32748;SDS011;19119;52.474;13.710;2022-09-09T01:26:58;0.98;;;0.52;;
32748;SDS011;19119;52.474;13.710;2022-09-09T01:29:29;0.95;;;0.52;;
32748;SDS011;19119;52.474;13.710;2022-09-09T01:31:55;0.77;;;0.50;;
32748;SDS011;19119;52.474;13.710;2022-09-09T01:34:31;0.60;;;0.60;;
32748;SDS011;19119;52.474;13.710;2022-09-09T01:37:08;0.63;;;0.45;;
32748;SDS011;19119;52.474;13.710;2022-09-09T01:39:36;0.73;;;0.60;;
32748;SDS011;19119;52.474;13.710;2022-09-09T01:42:04;1.15;;;0.60;;
32748;SDS011;19119;52.474;13.710;2022-09-09T01:44:32;1.13;;;0.75;;
32748;SDS011;19119;52.474;13.710;2022-09-09T01:47:00;0.63;;;0.47;;
32748;SDS011;19119;52.474;13.710;2022-09-09T01:49:27;0.63;;;0.60;;
32748;SDS011;19119;52.474;13.710;2022-09-09T01:51:53;0.50;;;0.50;;
32748;SDS011;19119;52.474;13.710;2022-09-09T01:54:20;1.00;;;0.55;;
32748;SDS011;19119;52.474;13.710;2022-09-09T01:57:01;0.57;;;0.57;;
32748;SDS011;19119;52.474;13.710;2022-09-09T02:02:16;0.90;;;0.50;;
32748;SDS011;19119;52.474;13.710;2022-09-09T02:04:47;1.45;;;0.80;;
32748;SDS011;19119;52.474;13.710;2022-09-09T02:09:57;1.73;;;0.93;;
32748;SDS011;19119;52.474;13.710;2022-09-09T02:12:30;0.93;;;0.50;;
32748;SDS011;19119;52.474;13.710;2022-09-09T02:14:59;0.98;;;0.80;;
32748;SDS011;19119;52.474;13.710;2022-09-09T02:17:33;1.83;;;0.70;;
32748;SDS011;19119;52.474;13.710;2022-09-09T02:20:08;1.00;;;0.73;;
32748;SDS011;19119;52.474;13.710;2022-09-09T02:22:38;0.98;;;0.63;;
32748;SDS011;19119;52.474;13.710;2022-09-09T02:25:07;1.10;;;0.80;;
32748;SDS011;19119;52.474;13.710;2022-09-09T02:27:35;0.70;;;0.55;;
32748;SDS011;19119;52.474;13.710;2022-09-09T02:30:01;0.85;;;0.57;;
32748;SDS011;19119;52.474;13.710;2022-09-09T02:32:29;1.55;;;0.80;;
32748;SDS011;19119;52.474;13.710;2022-09-09T02:35:01;2.28;;;0.52;;
32748;SDS011;19119;52.474;13.710;2022-09-09T02:37:40;0.63;;;0.63;;
32748;SDS011;19119;52.474;13.710;2022-09-09T02:40:08;0.68;;;0.63;;
32748;SDS011;19119;52.474;13.710;2022-09-09T02:42:43;0.60;;;0.45;;
32748;SDS011;19119;52.474;13.710;2022-09-09T02:45:18;0.80;;;0.60;;
32748;SDS011;19119;52.474;13.710;2022-09-09T02:47:53;0.60;;;0.40;;
32748;SDS011;19119;52.474;13.710;2022-09-09T02:50:57;1.38;;;0.60;;
32748;SDS011;19119;52.474;13.710;2022-09-09T02:53:39;1.52;;;0.85;;
32748;SDS011;19119;52.474;13.710;2022-09-09T02:56:14;1.55;;;0.45;;
32748;SDS011;19119;52.474;13.710;2022-09-09T02:58:42;0.73;;;0.68;;
32748;SDS011;19119;52.474;13.710;2022-09-09T03:01:08;1.02;;;0.93;;
32748;SDS011;19119;52.474;13.710;2022-09-09T03:03:34;1.00;;;0.85;;
32748;SDS011;19119;52.474;13.710;2022-09-09T03:06:00;0.95;;;0.70;;
32748;SDS011;19119;52.474;13.710;2022-09-09T03:08:26;1.67;;;0.88;;
32748;SDS011;19119;52.474;13.710;2022-09-09T03:10:53;0.65;;;0.45;;
32748;SDS011;19119;52.474;13.710;2022-09-09T03:13:19;0.85;;;0.80;;
32748;SDS011;19119;52.474;13.710;2022-09-09T03:15:45;1.35;;;0.68;;
32748;SDS011;19119;52.474;13.710;2022-09-09T03:18:13;2.00;;;1.23;;
32748;SDS011;19119;52.474;13.710;2022-09-09T03:20:39;1.50;;;0.68;;
32748;SDS011;19119;52.474;13.710;2022-09-09T03:23:06;1.77;;;1.08;;
32748;SDS011;19119;52.474;13.710;2022-09-09T03:25:32;0.82;;;0.65;;
32748;SDS011;19119;52.474;13.710;2022-09-09T03:27:58;1.08;;;0.73;;
32748;SDS011;19119;52.474;13.710;2022-09-09T03:30:26;0.98;;;0.75;;
32748;SDS011;19119;52.474;13.710;2022-09-09T03:32:52;2.47;;;0.77;;
32748;SDS011;19119;52.474;13.710;2022-09-09T03:35:17;1.25;;;0.70;;
32748;SDS011;19119;52.474;13.710;2022-09-09T03:37:44;0.93;;;0.63;;
32748;SDS011;19119;52.474;13.710;2022-09-09T03:40:09;0.63;;;0.50;;
32748;SDS011;19119;52.474;13.710;2022-09-09T03:42:38;1.70;;;1.20;;
32748;SDS011;19119;52.474;13.710;2022-09-09T03:45:08;0.80;;;0.52;;
32748;SDS011;19119;52.474;13.710;2022-09-09T03:47:35;0.95;;;0.70;;
32748;SDS011;19119;52.474;13.710;2022-09-09T03:50:01;2.15;;;1.23;;
32748;SDS011;19119;52.474;13.710;2022-09-09T03:52:27;2.25;;;1.40;;
32748;SDS011;19119;52.474;13.710;2022-09-09T03:54:53;2.88;;;1.92;;
32748;SDS011;19119;52.474;13.710;2022-09-09T03:57:19;7.32;;;3.97;;
32748;SDS011;19119;52.474;13.710;2022-09-09T03:59:46;5.32;;;3.30;;
32748;SDS011;19119;52.474;13.710;2022-09-09T04:02:12;4.25;;;2.38;;
32748;SDS011;19119;52.474;13.710;2022-09-09T04:04:37;4.18;;;3.00;;
32748;SDS011;19119;52.474;13.710;2022-09-09T04:07:03;5.47;;;3.25;;
32748;SDS011;19119;52.474;13.710;2022-09-09T04:09:31;5.47;;;3.30;;
32748;SDS011;19119;52.474;13.710;2022-09-09T04:11:56;5.85;;;3.65;;
32748;SDS011;19119;52.474;13.710;2022-09-09T04:14:22;4.93;;;3.20;;
32748;SDS011;19119;52.474;13.710;2022-09-09T04:16:47;5.82;;;3.30;;
32748;SDS011;19119;52.474;13.710;2022-09-09T04:19:13;6.95;;;3.40;;
32748;SDS011;19119;52.474;13.710;2022-09-09T04:21:39;8.13;;;4.00;;
32748;SDS011;19119;52.474;13.710;2022-09-09T04:24:06;4.63;;;3.30;;
32748;SDS011;19119;52.474;13.710;2022-09-09T04:26:32;5.18;;;3.15;;
32748;SDS011;19119;52.474;13.710;2022-09-09T04:28:58;4.82;;;3.08;;
32748;SDS011;19119;52.474;13.710;2022-09-09T04:31:24;5.22;;;3.50;;
32748;SDS011;19119;52.474;13.710;2022-09-09T04:33:49;3.00;;;1.98;;
32748;SDS011;19119;52.474;13.710;2022-09-09T04:36:16;5.50;;;3.17;;
32748;SDS011;19119;52.474;13.710;2022-09-09T04:38:43;5.63;;;3.15;;
32748;SDS011;19119;52.474;13.710;2022-09-09T04:41:09;5.47;;;3.10;;
32748;SDS011;19119;52.474;13.710;2022-09-09T04:43:36;3.40;;;2.25;;
32748;SDS011;19119;52.474;13.710;2022-09-09T04:46:02;6.10;;;2.90;;
32748;SDS011;19119;52.474;13.710;2022-09-09T04:48:28;3.28;;;2.20;;
32748;SDS011;19119;52.474;13.710;2022-09-09T04:51:06;2.00;;;1.42;;
32748;SDS011;19119;52.474;13.710;2022-09-09T04:53:34;1.20;;;1.05;;
32748;SDS011;19119;52.474;13.710;2022-09-09T04:56:10;2.17;;;1.65;;
32748;SDS011;19119;52.474;13.710;2022-09-09T04:58:38;2.78;;;1.70;;
32748;SDS011;19119;52.474;13.710;2022-09-09T05:03:31;1.98;;;1.10;;
32748;SDS011;19119;52.474;13.710;2022-09-09T05:06:04;1.38;;;0.80;;
32748;SDS011;19119;52.474;13.710;2022-09-09T05:10:55;1.38;;;0.88;;
32748;SDS011;19119;52.474;13.710;2022-09-09T05:13:20;1.00;;;0.90;;
32748;SDS011;19119;52.474;13.710;2022-09-09T05:15:51;1.35;;;1.08;;
32748;SDS011;19119;52.474;13.710;2022-09-09T05:18:19;1.65;;;1.30;;
32748;SDS011;19119;52.474;13.710;2022-09-09T05:20:46;1.73;;;1.13;;
32748;SDS011;19119;52.474;13.710;2022-09-09T05:23:12;0.90;;;0.70;;
32748;SDS011;19119;52.474;13.710;2022-09-09T05:25:38;1.40;;;1.10;;
32748;SDS011;19119;52.474;13.710;2022-09-09T05:28:05;1.63;;;1.13;;
32748;SDS011;19119;52.474;13.710;2022-09-09T05:30:32;1.67;;;1.02;;
32748;SDS011;19119;52.474;13.710;2022-09-09T05:32:58;1.45;;;1.00;;
32748;SDS011;19119;52.474;13.710;2022-09-09T05:35:24;1.48;;;0.90;;
32748;SDS011;19119;52.474;13.710;2022-09-09T05:37:49;1.42;;;1.08;;
32748;SDS011;19119;52.474;13.710;2022-09-09T05:40:15;1.60;;;1.15;;
32748;SDS011;19119;52.474;13.710;2022-09-09T05:42:41;2.50;;;1.13;;
32748;SDS011;19119;52.474;13.710;2022-09-09T05:45:07;1.60;;;1.08;;
32748;SDS011;19119;52.474;13.710;2022-09-09T05:47:34;1.33;;;0.90;;
32748;SDS011;19119;52.474;13.710;2022-09-09T05:50:02;2.03;;;1.13;;
32748;SDS011;19119;52.474;13.710;2022-09-09T05:52:28;1.98;;;1.52;;
32748;SDS011;19119;52.474;13.710;2022-09-09T05:54:53;1.50;;;1.25;;
32748;SDS011;19119;52.474;13.710;2022-09-09T05:57:21;1.20;;;1.08;;
32748;SDS011;19119;52.474;13.710;2022-09-09T05:59:46;1.42;;;0.70;;
32748;SDS011;19119;52.474;13.710;2022-09-09T06:02:12;1.77;;;0.90;;
32748;SDS011;19119;52.474;13.710;2022-09-09T06:04:38;2.13;;;1.08;;
32748;SDS011;19119;52.474;13.710;2022-09-09T06:07:04;1.15;;;0.90;;
32748;SDS011;19119;52.474;13.710;2022-09-09T06:09:30;2.17;;;1.17;;
32748;SDS011;19119;52.474;13.710;2022-09-09T06:11:55;2.33;;;0.80;;
32748;SDS011;19119;52.474;13.710;2022-09-09T06:14:23;1.75;;;1.08;;
32748;SDS011;19119;52.474;13.710;2022-09-09T06:16:49;1.63;;;0.90;;
32748;SDS011;19119;52.474;13.710;2022-09-09T06:19:14;1.58;;;1.05;;
32748;SDS011;19119;52.474;13.710;2022-09-09T06:21:40;1.75;;;1.23;;
32748;SDS011;19119;52.474;13.710;2022-09-09T06:24:06;1.30;;;0.90;;
32748;SDS011;19119;52.474;13.710;2022-09-09T06:26:35;1.20;;;0.90;;
32748;SDS011;19119;52.474;13.710;2022-09-09T06:29:04;2.00;;;1.00;;
32748;SDS011;19119;52.474;13.710;2022-09-09T06:31:30;1.80;;;1.13;;
32748;SDS011;19119;52.474;13.710;2022-09-09T06:33:59;1.00;;;0.75;;
32748;SDS011;19119;52.474;13.710;2022-09-09T06:36:26;1.20;;;1.08;;
32748;SDS011;19119;52.474;13.710;2022-09-09T06:38:53;1.10;;;0.90;;
32748;SDS011;19119;52.474;13.710;2022-09-09T06:41:20;1.50;;;1.30;;
32748;SDS011;19119;52.474;13.710;2022-09-09T06:43:47;1.50;;;0.90;;
32748;SDS011;19119;52.474;13.710;2022-09-09T06:48:40;1.52;;;0.93;;
32748;SDS011;19119;52.474;13.710;2022-09-09T06:51:07;1.10;;;1.00;;
32748;SDS011;19119;52.474;13.710;2022-09-09T06:53:36;1.02;;;0.90;;
32748;SDS011;19119;52.474;13.710;2022-09-09T06:58:59;1.05;;;0.80;;
32748;SDS011;19119;52.474;13.710;2022-09-09T07:01:32;1.27;;;0.80;;
32748;SDS011;19119;52.474;13.710;2022-09-09T07:03:59;0.80;;;0.70;;
32748;SDS011;19119;52.474;13.710;2022-09-09T07:06:36;1.50;;;0.93;;
32748;SDS011;19119;52.474;13.710;2022-09-09T07:09:04;1.30;;;0.70;;
32748;SDS011;19119;52.474;13.710;2022-09-09T07:11:36;1.08;;;0.80;;
32748;SDS011;19119;52.474;13.710;2022-09-09T07:14:03;1.35;;;0.88;;
32748;SDS011;19119;52.474;13.710;2022-09-09T07:16:29;0.82;;;0.80;;
32748;SDS011;19119;52.474;13.710;2022-09-09T07:18:56;0.95;;;0.70;;
32748;SDS011;19119;52.474;13.710;2022-09-09T07:21:25;1.23;;;0.90;;
32748;SDS011;19119;52.474;13.710;2022-09-09T07:23:52;1.58;;;0.98;;
32748;SDS011;19119;52.474;13.710;2022-09-09T07:26:19;1.17;;;0.80;;
32748;SDS011;19119;52.474;13.710;2022-09-09T07:28:47;1.00;;;0.80;;
32748;SDS011;19119;52.474;13.710;2022-09-09T07:31:18;1.05;;;0.90;;
32748;SDS011;19119;52.474;13.710;2022-09-09T07:36:21;1.20;;;0.70;;
32748;SDS011;19119;52.474;13.710;2022-09-09T07:38:53;1.98;;;1.00;;
32748;SDS011;19119;52.474;13.710;2022-09-09T07:46:22;1.85;;;0.55;;
32748;SDS011;19119;52.474;13.710;2022-09-09T07:48:50;2.15;;;0.90;;
32748;SDS011;19119;52.474;13.710;2022-09-09T07:51:18;1.33;;;0.70;;
32748;SDS011;19119;52.474;13.710;2022-09-09T07:53:47;1.08;;;0.60;;
32748;SDS011;19119;52.474;13.710;2022-09-09T07:56:14;0.63;;;0.55;;
32748;SDS011;19119;52.474;13.710;2022-09-09T07:58:47;0.90;;;0.70;;
32748;SDS011;19119;52.474;13.710;2022-09-09T08:01:14;0.82;;;0.70;;
32748;SDS011;19119;52.474;13.710;2022-09-09T08:04:06;0.90;;;0.60;;
32748;SDS011;19119;52.474;13.710;2022-09-09T08:06:40;0.77;;;0.68;;
32748;SDS011;19119;52.474;13.710;2022-09-09T08:09:11;0.52;;;0.52;;
32748;SDS011;19119;52.474;13.710;2022-09-09T08:11:37;0.60;;;0.55;;
32748;SDS011;19119;52.474;13.710;2022-09-09T08:14:04;0.68;;;0.60;;
32748;SDS011;19119;52.474;13.710;2022-09-09T08:16:33;1.35;;;0.93;;
32748;SDS011;19119;52.474;13.710;2022-09-09T08:19:02;0.90;;;0.70;;
32748;SDS011;19119;52.474;13.710;2022-09-09T08:21:29;0.38;;;0.30;;
32748;SDS011;19119;52.474;13.710;2022-09-09T08:23:57;1.30;;;0.68;;
32748;SDS011;19119;52.474;13.710;2022-09-09T08:26:25;0.75;;;0.60;;
32748;SDS011;19119;52.474;13.710;2022-09-09T08:28:52;1.65;;;0.50;;
32748;SDS011;19119;52.474;13.710;2022-09-09T08:31:21;0.57;;;0.50;;
32748;SDS011;19119;52.474;13.710;2022-09-09T08:33:53;0.93;;;0.57;;
32748;SDS011;19119;52.474;13.710;2022-09-09T08:36:19;0.40;;;0.40;;
32748;SDS011;19119;52.474;13.710;2022-09-09T08:38:47;1.98;;;0.50;;
32748;SDS011;19119;52.474;13.710;2022-09-09T08:44:09;0.50;;;0.40;;
32748;SDS011;19119;52.474;13.710;2022-09-09T08:50:06;0.65;;;0.50;;
32748;SDS011;19119;52.474;13.710;2022-09-09T08:58:17;0.50;;;0.40;;
32748;SDS011;19119;52.474;13.710;2022-09-09T09:00:57;1.08;;;0.52;;
32748;SDS011;19119;52.474;13.710;2022-09-09T09:03:41;0.40;;;0.40;;
32748;SDS011;19119;52.474;13.710;2022-09-09T09:11:39;0.60;;;0.60;;
32748;SDS011;19119;52.474;13.710;2022-09-09T09:14:17;0.50;;;0.40;;
32748;SDS011;19119;52.474;13.710;2022-09-09T09:17:05;0.60;;;0.50;;
32748;SDS011;19119;52.474;13.710;2022-09-09T09:19:34;0.93;;;0.57;;
32748;SDS011;19119;52.474;13.710;2022-09-09T09:22:14;0.50;;;0.50;;
32748;SDS011;19119;52.474;13.710;2022-09-09T09:24:55;0.55;;;0.38;;
32748;SDS011;19119;52.474;13.710;2022-09-09T09:27:32;1.05;;;0.70;;
32748;SDS011;19119;52.474;13.710;2022-09-09T09:30:02;0.50;;;0.50;;
32748;SDS011;19119;52.474;13.710;2022-09-09T09:32:38;0.85;;;0.40;;
32748;SDS011;19119;52.474;13.710;2022-09-09T09:35:10;0.25;;;0.20;;
32748;SDS011;19119;52.474;13.710;2022-09-09T09:37:37;0.52;;;0.40;;
32748;SDS011;19119;52.474;13.710;2022-09-09T09:40:12;0.20;;;0.20;;
32748;SDS011;19119;52.474;13.710;2022-09-09T09:42:55;0.47;;;0.40;;
32748;SDS011;19119;52.474;13.710;2022-09-09T09:45:26;0.65;;;0.30;;
32748;SDS011;19119;52.474;13.710;2022-09-09T09:48:11;0.40;;;0.30;;
32748;SDS011;19119;52.474;13.710;2022-09-09T09:53:30;0.50;;;0.50;;
32748;SDS011;19119;52.474;13.710;2022-09-09T09:56:01;0.30;;;0.30;;
32748;SDS011;19119;52.474;13.710;2022-09-09T10:01:20;0.30;;;0.30;;
32748;SDS011;19119;52.474;13.710;2022-09-09T10:03:53;0.40;;;0.40;;
32748;SDS011;19119;52.474;13.710;2022-09-09T10:06:31;0.20;;;0.20;;
32748;SDS011;19119;52.474;13.710;2022-09-09T10:08:58;0.20;;;0.20;;
32748;SDS011;19119;52.474;13.710;2022-09-09T10:11:27;1.08;;;0.38;;
32748;SDS011;19119;52.474;13.710;2022-09-09T10:14:06;0.93;;;0.50;;
32748;SDS011;19119;52.474;13.710;2022-09-09T10:16:59;0.60;;;0.30;;
32748;SDS011;19119;52.474;13.710;2022-09-09T10:22:52;0.90;;;0.50;;
32748;SDS011;19119;52.474;13.710;2022-09-09T10:26:32;0.20;;;0.20;;
32748;SDS011;19119;52.474;13.710;2022-09-09T10:28:36;0.73;;;0.20;;
32748;SDS011;19119;52.474;13.710;2022-09-09T10:31:16;0.38;;;0.30;;
32748;SDS011;19119;52.474;13.710;2022-09-09T10:36:35;0.20;;;0.20;;
32748;SDS011;19119;52.474;13.710;2022-09-09T10:39:33;0.90;;;0.30;;
32748;SDS011;19119;52.474;13.710;2022-09-09T10:47:32;0.35;;;0.30;;
32748;SDS011;19119;52.474;13.710;2022-09-09T10:53:08;0.20;;;0.20;;
32748;SDS011;19119;52.474;13.710;2022-09-09T10:55:39;0.22;;;0.22;;
32748;SDS011;19119;52.474;13.710;2022-09-09T10:58:12;0.38;;;0.30;;
32748;SDS011;19119;52.474;13.710;2022-09-09T11:00:50;0.30;;;0.22;;
32748;SDS011;19119;52.474;13.710;2022-09-09T11:03:20;0.55;;;0.25;;
32748;SDS011;19119;52.474;13.710;2022-09-09T11:05:50;0.30;;;0.20;;
32748;SDS011;19119;52.474;13.710;2022-09-09T11:08:22;0.47;;;0.30;;
32748;SDS011;19119;52.474;13.710;2022-09-09T11:21:50;0.88;;;0.40;;
32748;SDS011;19119;52.474;13.710;2022-09-09T11:27:16;0.63;;;0.63;;
32748;SDS011;19119;52.474;13.710;2022-09-09T11:35:51;0.35;;;0.28;;
32748;SDS011;19119;52.474;13.710;2022-09-09T11:38:47;1.00;;;0.52;;
32748;SDS011;19119;52.474;13.710;2022-09-09T11:41:16;0.10;;;0.10;;
32748;SDS011;19119;52.474;13.710;2022-09-09T11:43:44;0.20;;;0.20;;
32748;SDS011;19119;52.474;13.710;2022-09-09T11:46:15;1.10;;;0.40;;
32748;SDS011;19119;52.474;13.710;2022-09-09T11:48:45;0.68;;;0.40;;
32748;SDS011;19119;52.474;13.710;2022-09-09T11:56:55;0.32;;;0.28;;
32748;SDS011;19119;52.474;13.710;2022-09-09T12:01:50;1.08;;;0.30;;
32748;SDS011;19119;52.474;13.710;2022-09-09T12:06:54;0.10;;;0.10;;
32748;SDS011;19119;52.474;13.710;2022-09-09T12:09:33;0.65;;;0.20;;
32748;SDS011;19119;52.474;13.710;2022-09-09T12:14:44;1.00;;;0.20;;
32748;SDS011;19119;52.474;13.710;2022-09-09T12:17:24;0.20;;;0.20;;
32748;SDS011;19119;52.474;13.710;2022-09-09T12:20:02;0.30;;;0.30;;
32748;SDS011;19119;52.474;13.710;2022-09-09T12:22:39;0.52;;;0.30;;
32748;SDS011;19119;52.474;13.710;2022-09-09T12:25:23;0.10;;;0.10;;
32748;SDS011;19119;52.474;13.710;2022-09-09T12:30:31;0.13;;;0.13;;
32748;SDS011;19119;52.474;13.710;2022-09-09T12:33:16;0.40;;;0.20;;
32748;SDS011;19119;52.474;13.710;2022-09-09T12:35:44;0.35;;;0.20;;
32748;SDS011;19119;52.474;13.710;2022-09-09T12:38:14;0.20;;;0.20;;
32748;SDS011;19119;52.474;13.710;2022-09-09T12:40:53;0.32;;;0.25;;
32748;SDS011;19119;52.474;13.710;2022-09-09T12:43:22;1.30;;;0.32;;
32748;SDS011;19119;52.474;13.710;2022-09-09T12:45:51;0.20;;;0.20;;
32748;SDS011;19119;52.474;13.710;2022-09-09T12:48:30;0.20;;;0.20;;
32748;SDS011;19119;52.474;13.710;2022-09-09T12:50:59;0.35;;;0.22;;
32748;SDS011;19119;52.474;13.710;2022-09-09T12:53:36;0.10;;;0.10;;
32748;SDS011;19119;52.474;13.710;2022-09-09T12:56:06;0.28;;;0.28;;
32748;SDS011;19119;52.474;13.710;2022-09-09T12:58:33;0.20;;;0.20;;
32748;SDS011;19119;52.474;13.710;2022-09-09T13:01:01;0.22;;;0.20;;
32748;SDS011;19119;52.474;13.710;2022-09-09T13:03:29;0.10;;;0.10;;
32748;SDS011;19119;52.474;13.710;2022-09-09T13:06:10;0.45;;;0.20;;
32748;SDS011;19119;52.474;13.710;2022-09-09T13:08:39;0.20;;;0.20;;
32748;SDS011;19119;52.474;13.710;2022-09-09T13:11:16;0.93;;;0.30;;
32748;SDS011;19119;52.474;13.710;2022-09-09T13:13:52;0.20;;;0.20;;
32748;SDS011;19119;52.474;13.710;2022-09-09T13:16:22;0.80;;;0.30;;
32748;SDS011;19119;52.474;13.710;2022-09-09T13:18:56;0.10;;;0.10;;
32748;SDS011;19119;52.474;13.710;2022-09-09T13:21:34;0.28;;;0.28;;
32748;SDS011;19119;52.474;13.710;2022-09-09T13:24:02;0.10;;;0.10;;
32748;SDS011;19119;52.474;13.710;2022-09-09T13:26:32;0.63;;;0.20;;
32748;SDS011;19119;52.474;13.710;2022-09-09T13:29:14;0.90;;;0.50;;
32748;SDS011;19119;52.474;13.710;2022-09-09T13:31:45;0.13;;;0.13;;
32748;SDS011;19119;52.474;13.710;2022-09-09T13:34:26;1.00;;;0.60;;
32748;SDS011;19119;52.474;13.710;2022-09-09T13:36:55;0.13;;;0.13;;
32748;SDS011;19119;52.474;13.710;2022-09-09T13:39:34;0.17;;;0.17;;
32748;SDS011;19119;52.474;13.710;2022-09-09T13:42:02;0.32;;;0.30;;
32748;SDS011;19119;52.474;13.710;2022-09-09T13:44:30;0.50;;;0.20;;
32748;SDS011;19119;52.474;13.710;2022-09-09T13:47:00;0.30;;;0.20;;
32748;SDS011;19119;52.474;13.710;2022-09-09T13:49:30;0.13;;;0.10;;
32748;SDS011;19119;52.474;13.710;2022-09-09T13:52:31;0.10;;;0.10;;
32748;SDS011;19119;52.474;13.710;2022-09-09T13:54:52;0.10;;;0.10;;
32748;SDS011;19119;52.474;13.710;2022-09-09T13:57:20;0.30;;;0.30;;
32748;SDS011;19119;52.474;13.710;2022-09-09T13:59:47;0.20;;;0.13;;
32748;SDS011;19119;52.474;13.710;2022-09-09T14:02:16;0.20;;;0.10;;
32748;SDS011;19119;52.474;13.710;2022-09-09T14:04:42;0.10;;;0.10;;
32748;SDS011;19119;52.474;13.710;2022-09-09T14:07:11;0.40;;;0.20;;
32748;SDS011;19119;52.474;13.710;2022-09-09T14:09:39;0.52;;;0.30;;
32748;SDS011;19119;52.474;13.710;2022-09-09T14:12:05;0.35;;;0.28;;
32748;SDS011;19119;52.474;13.710;2022-09-09T14:14:34;0.20;;;0.20;;
32748;SDS011;19119;52.474;13.710;2022-09-09T14:16:59;0.17;;;0.10;;
32748;SDS011;19119;52.474;13.710;2022-09-09T14:19:25;0.15;;;0.15;;
32748;SDS011;19119;52.474;13.710;2022-09-09T14:21:51;0.10;;;0.10;;
32748;SDS011;19119;52.474;13.710;2022-09-09T14:24:16;1.95;;;0.60;;
32748;SDS011;19119;52.474;13.710;2022-09-09T14:26:42;0.65;;;0.30;;
32748;SDS011;19119;52.474;13.710;2022-09-09T14:29:07;0.60;;;0.40;;
32748;SDS011;19119;52.474;13.710;2022-09-09T14:31:33;0.82;;;0.65;;
32748;SDS011;19119;52.474;13.710;2022-09-09T14:33:59;0.98;;;0.45;;
32748;SDS011;19119;52.474;13.710;2022-09-09T14:36:25;1.23;;;0.60;;
32748;SDS011;19119;52.474;13.710;2022-09-09T14:38:50;0.90;;;0.60;;
32748;SDS011;19119;52.474;13.710;2022-09-09T14:41:17;1.23;;;0.75;;
32748;SDS011;19119;52.474;13.710;2022-09-09T14:43:44;0.55;;;0.45;;
32748;SDS011;19119;52.474;13.710;2022-09-09T14:46:11;0.30;;;0.30;;
32748;SDS011;19119;52.474;13.710;2022-09-09T14:48:38;0.38;;;0.30;;
32748;SDS011;19119;52.474;13.710;2022-09-09T14:51:09;0.22;;;0.22;;
32748;SDS011;19119;52.474;13.710;2022-09-09T14:53:40;0.30;;;0.30;;
32748;SDS011;19119;52.474;13.710;2022-09-09T14:56:16;0.40;;;0.20;;
32748;SDS011;19119;52.474;13.710;2022-09-09T14:58:43;0.35;;;0.30;;
32748;SDS011;19119;52.474;13.710;2022-09-09T15:01:16;0.60;;;0.38;;
32748;SDS011;19119;52.474;13.710;2022-09-09T15:03:49;0.60;;;0.40;;
32748;SDS011;19119;52.474;13.710;2022-09-09T15:06:16;1.40;;;0.70;;
32748;SDS011;19119;52.474;13.710;2022-09-09T15:08:43;0.40;;;0.13;;
32748;SDS011;19119;52.474;13.710;2022-09-09T15:11:09;0.30;;;0.28;;
32748;SDS011;19119;52.474;13.710;2022-09-09T15:13:36;0.10;;;0.10;;
32748;SDS011;19119;52.474;13.710;2022-09-09T15:16:07;0.52;;;0.32;;
32748;SDS011;19119;52.474;13.710;2022-09-09T15:18:35;0.30;;;0.30;;
32748;SDS011;19119;52.474;13.710;2022-09-09T15:21:01;0.20;;;0.20;;
32748;SDS011;19119;52.474;13.710;2022-09-09T15:23:31;0.52;;;0.35;;
32748;SDS011;19119;52.474;13.710;2022-09-09T15:25:57;0.40;;;0.20;;
32748;SDS011;19119;52.474;13.710;2022-09-09T15:28:22;0.85;;;0.30;;
32748;SDS011;19119;52.474;13.710;2022-09-09T15:30:51;0.60;;;0.32;;
32748;SDS011;19119;52.474;13.710;2022-09-09T15:33:21;1.00;;;0.43;;
32748;SDS011;19119;52.474;13.710;2022-09-09T15:35:47;0.55;;;0.30;;
32748;SDS011;19119;52.474;13.710;2022-09-09T15:38:13;0.55;;;0.40;;
32748;SDS011;19119;52.474;13.710;2022-09-09T15:40:39;0.50;;;0.40;;
32748;SDS011;19119;52.474;13.710;2022-09-09T15:43:05;0.98;;;0.20;;
32748;SDS011;19119;52.474;13.710;2022-09-09T15:45:32;0.63;;;0.22;;
32748;SDS011;19119;52.474;13.710;2022-09-09T15:48:01;0.22;;;0.20;;
32748;SDS011;19119;52.474;13.710;2022-09-09T15:50:28;0.20;;;0.20;;
32748;SDS011;19119;52.474;13.710;2022-09-09T15:52:56;0.57;;;0.22;;
32748;SDS011;19119;52.474;13.710;2022-09-09T15:55:22;0.20;;;0.20;;
32748;SDS011;19119;52.474;13.710;2022-09-09T15:57:50;0.50;;;0.38;;
32748;SDS011;19119;52.474;13.710;2022-09-09T16:00:17;0.95;;;0.38;;
32748;SDS011;19119;52.474;13.710;2022-09-09T16:02:43;1.27;;;0.47;;
32748;SDS011;19119;52.474;13.710;2022-09-09T16:05:09;0.30;;;0.30;;
32748;SDS011;19119;52.474;13.710;2022-09-09T16:07:35;0.40;;;0.30;;
32748;SDS011;19119;52.474;13.710;2022-09-09T16:10:01;0.20;;;0.20;;
32748;SDS011;19119;52.474;13.710;2022-09-09T16:12:27;0.30;;;0.30;;
32748;SDS011;19119;52.474;13.710;2022-09-09T16:14:52;1.08;;;0.40;;
32748;SDS011;19119;52.474;13.710;2022-09-09T16:17:18;0.40;;;0.40;;
32748;SDS011;19119;52.474;13.710;2022-09-09T16:19:45;0.47;;;0.43;;
32748;SDS011;19119;52.474;13.710;2022-09-09T16:22:11;0.45;;;0.40;;
32748;SDS011;19119;52.474;13.710;2022-09-09T16:24:36;0.70;;;0.40;;
32748;SDS011;19119;52.474;13.710;2022-09-09T16:27:02;0.50;;;0.40;;
32748;SDS011;19119;52.474;13.710;2022-09-09T16:29:27;0.45;;;0.32;;
32748;SDS011;19119;52.474;13.710;2022-09-09T16:31:53;0.50;;;0.30;;
32748;SDS011;19119;52.474;13.710;2022-09-09T16:34:20;0.20;;;0.20;;
32748;SDS011;19119;52.474;13.710;2022-09-09T16:36:46;0.40;;;0.40;;
32748;SDS011;19119;52.474;13.710;2022-09-09T16:39:22;0.55;;;0.50;;
32748;SDS011;19119;52.474;13.710;2022-09-09T16:41:48;0.20;;;0.20;;
32748;SDS011;19119;52.474;13.710;2022-09-09T16:44:15;0.50;;;0.40;;
32748;SDS011;19119;52.474;13.710;2022-09-09T16:46:43;0.80;;;0.50;;
32748;SDS011;19119;52.474;13.710;2022-09-09T16:49:10;1.60;;;0.60;;
32748;SDS011;19119;52.474;13.710;2022-09-09T16:51:39;0.47;;;0.38;;
32748;SDS011;19119;52.474;13.710;2022-09-09T16:54:10;0.77;;;0.47;;
32748;SDS011;19119;52.474;13.710;2022-09-09T16:56:37;0.90;;;0.50;;
32748;SDS011;19119;52.474;13.710;2022-09-09T16:59:06;0.30;;;0.30;;